Ignacio Agramonte International Airport
MUCM : rendu visible

Aérodrome :











RETROUVEZ-NOUS SUR...

 
LOGIN :

S'inscrire | Disclaimer

   EN    FR    IT 

 









Légende :    VFR   VFR Marginal   IFR   IFR Intensif   IFR Très Intensif
Visi : 
Plafond : 
>= 8 km
>= 3000ft
5 à 8 km
1000 à 3000 ft
1500m à 5 km
500 à 1000 ft
800 à 1500m
200 à 500 ft
< 800m
< 200 ft
Symboles :   Orages  Brouillard  Fortes neiges  Fortes précipitations  Vent > 20 kt






- Altitude de l'aérodrome : 413 ft
- Code IATA : CMW


MUCM - Ignacio Agramonte International

DERNIER METAR :
  • 281450Z 21004KT 160V280 9000 FEW020 25/19 Q1015

METARs EXPIRÉS :
  • 281350Z 22003KT 180V280 9000 NSC 23/23 Q1015
  • 281250Z VRB01KT 8000 FEW020 20/20 Q1014

TAF MUCM
Valide du 28 à 12h jusqu'au 29 à 12h UTC


281100Z 2812/2912 VRB03KT 9000 SCT020
TEMPO 2812/2814 3000 BR
BECMG 2815/2817 27008KT
BECMG 2901/2903 VRB03KT



MET'MAP, la Météo Aéronautique d'un coup d'oeil ! - Copyright ORBIFLY Décembre 2007 - Disclaimer

ORBIFLY MET'MAP TEAM :

Programmation & Développement : Alexandra Zaïnal
Sur une idée originale de : Baudouin d'Aumeries
Assistance à la programmation : Marc-Olivier Méhu
Soutien technique & logistique : Manuel Goepfert

Contact : metmap@orbifly.com




SOURCES & CREDITS :

   NOAA       Earth
Advisory